aviador You're here:

KGAF Decoded Metar

in
Report Time2017-10-24 00:15:00
UTC Time2017-10-24 00:07:54
Flight Rules vfr VFR
Wind350° at 18 Gusting to 24 kt
W.Decomp.*RWY 35: 18.0 kt HW 0 kt LCW
RWY 26: 18.0 kt RCW
W.Rank350° ranks 3
Current wind is above 350° avg. (11.1)
Visibility9999 m
Phenomena:N/A
Clouds:N/A
Expected CloudBase > 2,800 ft AGL from Temp-Dew spread
CeilingNone
Temp05°C
Dew Point-2°C (61% RH)
AAT-3.7°C
QNH1020 hPa
Raw Report
KGAF 240015Z AUTO 35018G24KT 10SM CLR 05/M02 A3011 RMK AO2
PWINO=

Extra information for KGAF:More info

Social comments